Rigolet, Canada
Current Conditions -  °F | °C
As of 5:00 AM on Wednesday 28 Jan 2015 (Local Time) from CWCA Reporting Station
Overcast Overcast  
Wind Chill: -25°   Ceiling: 10000
Heat Index: -8°   Visibility: 15mi
Dew Point: -18°   Wind: 9mph
Humidity: 59%   Direction: 330°NNW
Pressure: 30.27"   Gusts: NA
Location:  54.17°N, 58.43°W
Report Text: CWCA 280900Z 33008KT 15SM BKN100 OVC200 M22/M28 A3027 RMK AS5CS3 SLP252
Loading
Personal Weather Stations






























Interactive Weather Map New forecast layout! Learn more

10-Day Weather Forecast

Advertisements
Track Severe Weather on mobile